Time;durP1;ratioP1;P1;durP2;ratioP2;P2;SDS_P1;SDS_P2;PMS_P1;PMS_P2;Temp;Humidity;BMP_temperature;BMP_pressure;BME280_temperature;BME280_humidity;BME280_pressure;Samples;Min_cycle;Max_cycle;Signal;HPM_P1;HPM_P2
2022/11/12 00:00:07;;;;;;;8.93;6.30;;;7.20;99.90;;;;;;4994690;28;20089;-81
2022/11/12 00:02:33;;;;;;;5.63;4.97;;;7.20;99.90;;;;;;4994491;28;20104;-81
2022/11/12 00:04:59;;;;;;;6.80;5.97;;;7.30;99.90;;;;;;4994972;28;20462;-79
2022/11/12 00:07:24;;;;;;;8.30;6.80;;;7.30;99.90;;;;;;4993605;28;20480;-81
2022/11/12 00:09:50;;;;;;;7.78;5.97;;;7.20;99.90;;;;;;4994453;28;20066;-81
2022/11/12 00:12:16;;;;;;;7.97;5.70;;;7.30;99.90;;;;;;4994375;28;20466;-81
2022/11/12 00:14:41;;;;;;;7.20;5.80;;;7.40;99.90;;;;;;4994540;28;20565;-82
2022/11/12 00:17:07;;;;;;;6.80;5.78;;;7.40;99.90;;;;;;4993749;28;20193;-81
2022/11/12 00:19:32;;;;;;;9.88;6.25;;;7.30;99.90;;;;;;4993125;28;20050;-81
2022/11/12 00:21:58;;;;;;;7.97;6.22;;;7.20;99.90;;;;;;4994180;28;20497;-80
2022/11/12 00:24:24;;;;;;;10.30;6.70;;;7.10;99.90;;;;;;4994517;28;20418;-81
2022/11/12 00:26:49;;;;;;;7.97;6.47;;;7.00;99.90;;;;;;5009714;28;20047;-80
2022/11/12 00:29:15;;;;;;;9.48;5.82;;;7.00;99.90;;;;;;4993358;28;20543;-81
2022/11/12 00:31:41;;;;;;;8.45;6.15;;;6.90;99.90;;;;;;4994521;28;20050;-79
2022/11/12 00:34:06;;;;;;;12.65;7.00;;;6.90;99.90;;;;;;4994268;28;20042;-79
2022/11/12 00:36:32;;;;;;;8.30;6.50;;;6.90;99.90;;;;;;4993549;28;20046;-81
2022/11/12 00:38:58;;;;;;;11.40;6.70;;;6.90;99.90;;;;;;4992555;28;20125;-81
2022/11/12 00:41:24;;;;;;;9.35;6.85;;;6.90;99.90;;;;;;4993912;28;20386;-80
2022/11/12 00:43:50;;;;;;;10.05;6.80;;;6.90;99.90;;;;;;4994342;28;20081;-79
2022/11/12 00:46:15;;;;;;;8.93;7.25;;;6.90;99.90;;;;;;4993652;28;20100;-80
2022/11/12 00:48:41;;;;;;;8.18;6.47;;;6.90;99.90;;;;;;4992123;28;20395;-79
2022/11/12 00:51:06;;;;;;;8.60;6.90;;;7.00;99.90;;;;;;4993864;28;20398;-81
2022/11/12 00:53:32;;;;;;;8.50;6.93;;;6.90;99.90;;;;;;4992585;28;20043;-81
2022/11/12 00:56:03;;;;;;;7.45;6.38;;;6.90;99.90;;;;;;4993715;28;20049;-79
2022/11/12 00:58:30;;;;;;;7.55;5.75;;;6.80;99.90;;;;;;4992912;28;20125;-80
2022/11/12 01:00:56;;;;;;;8.93;6.95;;;6.80;99.90;;;;;;4993512;28;20057;-79
2022/11/12 01:03:22;;;;;;;9.50;7.93;;;6.90;99.90;;;;;;4992175;28;20053;-81
2022/11/12 01:05:48;;;;;;;8.45;6.32;;;6.80;99.90;;;;;;4993524;28;20046;-81
2022/11/12 01:08:14;;;;;;;7.88;6.68;;;7.30;99.90;;;;;;4992723;28;20088;-81
2022/11/12 01:10:39;;;;;;;7.35;6.03;;;6.80;99.90;;;;;;4992915;28;20049;-81
2022/11/12 01:13:05;;;;;;;7.45;6.70;;;6.90;99.90;;;;;;4993044;28;20065;-81
2022/11/12 01:15:31;;;;;;;8.48;7.03;;;6.90;99.90;;;;;;4993663;28;20082;-81
2022/11/12 01:17:56;;;;;;;8.88;7.95;;;6.90;99.90;;;;;;4992075;28;20088;-81
2022/11/12 01:20:22;;;;;;;9.15;7.38;;;6.80;99.90;;;;;;4993428;28;20053;-81
2022/11/12 01:22:48;;;;;;;10.32;7.50;;;6.70;99.90;;;;;;4993554;28;20452;-81
2022/11/12 01:25:13;;;;;;;9.23;6.85;;;6.70;99.90;;;;;;4992522;28;20046;-81
2022/11/12 01:27:39;;;;;;;8.07;6.15;;;6.60;99.90;;;;;;4991952;28;20177;-81
2022/11/12 01:30:05;;;;;;;11.60;6.97;;;6.70;99.90;;;;;;4976119;28;20046;-79
2022/11/12 01:32:35;;;;;;;9.73;6.97;;;6.60;99.90;;;;;;4993098;28;20050;-81
2022/11/12 01:35:01;;;;;;;8.18;6.28;;;6.60;99.90;;;;;;4993404;28;20050;-81
2022/11/12 01:37:26;;;;;;;10.02;7.38;;;6.60;99.90;;;;;;4992975;28;20049;-79
2022/11/12 01:39:52;;;;;;;6.72;6.03;;;6.70;99.90;;;;;;4993380;28;20101;-80
2022/11/12 01:42:18;;;;;;;9.93;7.53;;;6.70;99.90;;;;;;4993371;28;20443;-79
2022/11/12 01:44:45;;;;;;;8.40;6.88;;;6.90;99.90;;;;;;4992644;28;20072;-80
2022/11/12 01:47:21;;;;;;;8.07;6.63;;;6.60;99.90;;;;;;4991948;28;20463;-80
2022/11/12 01:50:01;;;;;;;9.48;7.25;;;6.60;99.90;;;;;;4993688;28;20050;-80
2022/11/12 01:52:35;;;;;;;9.00;7.57;;;6.60;99.90;;;;;;4993089;28;20125;-80
2022/11/12 01:55:08;;;;;;;11.15;8.40;;;6.60;99.90;;;;;;4993333;28;20054;-80
2022/11/12 01:57:44;;;;;;;15.00;8.70;;;6.70;99.90;;;;;;4992276;28;20097;-81
2022/11/12 02:00:11;;;;;;;12.02;8.60;;;7.00;99.90;;;;;;4995338;28;20046;-80
2022/11/12 02:02:38;;;;;;;10.70;8.30;;;6.60;99.90;;;;;;4996832;28;20039;-79
2022/11/12 02:05:07;;;;;;;10.23;7.40;;;6.60;99.90;;;;;;4997187;28;20096;-81
2022/11/12 02:07:35;;;;;;;8.65;7.82;;;6.60;99.90;;;;;;4996708;28;20046;-80
2022/11/12 02:10:02;;;;;;;9.82;7.45;;;6.60;99.90;;;;;;4996494;28;20042;-81
2022/11/12 02:15:12;;;;;;;9.68;7.47;;;6.50;99.90;;;;;;4997302;28;20073;-79
2022/11/12 02:17:38;;;;;;;12.20;8.70;;;6.60;99.90;;;;;;4997358;28;20459;-80
2022/11/12 02:20:08;;;;;;;10.32;9.27;;;6.90;99.90;;;;;;4996855;28;20467;-80
2022/11/12 02:22:34;;;;;;;10.45;7.72;;;6.50;99.90;;;;;;4995628;28;20046;-80
2022/11/12 02:25:00;;;;;;;9.07;7.05;;;6.50;99.90;;;;;;4996485;28;20046;-80
2022/11/12 02:27:26;;;;;;;10.35;8.05;;;6.50;99.90;;;;;;4996545;28;20046;-79
2022/11/12 02:29:52;;;;;;;10.55;9.40;;;6.50;99.90;;;;;;4995498;28;20132;-80
2022/11/12 02:32:17;;;;;;;12.57;8.52;;;6.50;99.90;;;;;;4996754;28;20050;-79
2022/11/12 02:34:44;;;;;;;10.20;9.18;;;6.50;99.90;;;;;;4995411;28;20050;-80
2022/11/12 02:37:09;;;;;;;13.00;9.60;;;6.40;99.90;;;;;;4996503;28;20046;-80
2022/11/12 02:39:35;;;;;;;10.13;8.30;;;6.60;99.90;;;;;;4996529;28;20382;-79
2022/11/12 02:42:01;;;;;;;12.07;10.07;;;6.50;99.90;;;;;;4996510;28;20104;-80
2022/11/12 02:44:27;;;;;;;11.40;9.57;;;6.60;99.90;;;;;;4995505;28;20061;-80
2022/11/12 02:46:53;;;;;;;12.95;10.20;;;6.50;99.90;;;;;;4996106;28;20057;-80
2022/11/12 02:49:18;;;;;;;14.65;10.45;;;6.50;99.90;;;;;;4996110;28;20058;-79
2022/11/12 02:51:44;;;;;;;14.18;10.60;;;6.50;99.90;;;;;;4996563;28;20043;-80
2022/11/12 02:54:10;;;;;;;13.93;11.20;;;6.50;99.90;;;;;;4996460;28;20046;-81
2022/11/12 02:56:35;;;;;;;11.35;9.70;;;6.50;99.90;;;;;;4996089;28;20049;-80
2022/11/12 02:59:01;;;;;;;13.48;10.48;;;6.50;99.90;;;;;;4995900;28;20509;-80
2022/11/12 03:01:27;;;;;;;13.55;11.07;;;6.40;99.90;;;;;;4995630;28;20042;-80
2022/11/12 03:03:53;;;;;;;12.82;9.55;;;6.40;99.90;;;;;;4995784;28;20436;-80
2022/11/12 03:06:19;;;;;;;13.00;10.23;;;6.40;99.90;;;;;;4996154;28;20097;-80
2022/11/12 03:08:44;;;;;;;15.90;10.95;;;6.30;99.90;;;;;;4994816;28;20486;-80
2022/11/12 03:11:13;;;;;;;12.65;9.90;;;6.30;99.90;;;;;;4995075;28;20046;-80
2022/11/12 03:13:39;;;;;;;12.57;9.35;;;6.40;99.90;;;;;;4995793;28;20066;-80
2022/11/12 03:16:05;;;;;;;11.93;9.98;;;6.40;99.90;;;;;;4994858;28;20121;-80
2022/11/12 03:18:32;;;;;;;10.23;9.18;;;6.50;99.90;;;;;;4994773;28;20374;-80
2022/11/12 03:20:57;;;;;;;14.82;10.52;;;6.50;99.90;;;;;;4994582;28;20082;-80
2022/11/12 03:23:24;;;;;;;14.85;11.07;;;6.40;99.90;;;;;;4995660;28;20497;-80
2022/11/12 03:25:50;;;;;;;13.40;10.60;;;6.40;99.90;;;;;;4995264;28;20490;-80
2022/11/12 03:28:16;;;;;;;14.20;10.48;;;6.40;99.90;;;;;;4995147;28;20057;-80
2022/11/12 03:30:42;;;;;;;13.48;10.82;;;6.40;99.90;;;;;;4994045;28;20050;-80
2022/11/12 03:33:10;;;;;;;13.68;10.98;;;6.40;99.90;;;;;;4995314;28;20463;-80
2022/11/12 03:35:37;;;;;;;14.45;10.70;;;6.40;99.90;;;;;;4995112;28;20090;-79
2022/11/12 03:38:03;;;;;;;13.55;11.05;;;6.40;99.90;;;;;;4994298;28;20126;-79
2022/11/12 03:40:30;;;;;;;12.82;9.98;;;6.40;99.90;;;;;;4994732;28;20129;-79
2022/11/12 03:42:56;;;;;;;12.00;9.27;;;6.40;99.90;;;;;;4995500;28;20050;-80
2022/11/12 03:45:24;;;;;;;13.52;10.15;;;6.30;99.90;;;;;;4995614;28;20441;-80
2022/11/12 03:47:52;;;;;;;11.60;9.48;;;6.40;99.90;;;;;;4994442;28;20058;-79
2022/11/12 03:50:20;;;;;;;12.43;9.73;;;6.60;99.90;;;;;;4995414;28;20050;-80
2022/11/12 03:52:48;;;;;;;8.10;7.18;;;6.20;99.90;;;;;;4994979;28;20035;-79
2022/11/12 03:55:15;;;;;;;10.38;7.95;;;6.10;99.90;;;;;;4994780;28;20077;-80
2022/11/12 03:57:41;;;;;;;11.20;9.00;;;6.10;99.90;;;;;;4995252;28;20136;-79
2022/11/12 04:00:08;;;;;;;8.05;7.30;;;6.10;99.90;;;;;;4993743;28;20050;-78
2022/11/12 04:02:34;;;;;;;7.93;7.03;;;6.00;99.90;;;;;;4995561;28;20048;-79
2022/11/12 04:10:29;;;;;;;44.17;10.15;;;5.80;99.90;;;;;;4995037;28;20193;-78
2022/11/12 04:15:39;;;;;;;89.93;13.48;;;5.90;99.90;;;;;;4994466;28;20058;-80
2022/11/12 04:23:33;;;;;;;11.05;7.00;;;6.50;99.90;;;;;;4992419;28;20050;-79
2022/11/12 04:30:14;;;;;;;8.77;7.35;;;5.80;99.90;;;;;;4994262;28;20051;-79
2022/11/12 04:31:30;;;;;;;8.25;7.25;;;5.80;99.90;;;;;;4994115;28;20061;-81
2022/11/12 04:34:27;;;;;;;8.68;6.90;;;5.80;99.90;;;;;;4994052;28;20046;-79
2022/11/12 04:36:41;;;;;;;8.20;7.40;;;5.80;99.90;;;;;;4994058;28;20109;-79
2022/11/12 04:39:07;;;;;;;7.47;6.78;;;5.80;99.90;;;;;;4993908;28;20054;-79
2022/11/12 04:47:01;;;;;;;10.57;7.35;;;5.60;99.90;;;;;;4993807;28;20057;-78
2022/11/12 04:49:27;;;;;;;9.15;7.70;;;5.50;99.90;;;;;;4976901;28;20050;-77
2022/11/12 04:52:05;;;;;;;10.02;6.70;;;5.50;99.90;;;;;;4994067;28;20052;-79
2022/11/12 04:54:31;;;;;;;7.25;6.10;;;5.50;99.90;;;;;;4992729;28;20069;-78
2022/11/12 04:56:57;;;;;;;6.57;5.32;;;5.50;99.90;;;;;;4992700;28;20058;-80
2022/11/12 04:59:23;;;;;;;10.45;6.75;;;6.00;99.90;;;;;;4993622;28;20096;-78
2022/11/12 05:01:49;;;;;;;11.43;7.00;;;5.90;99.90;;;;;;5009150;28;20042;-79
2022/11/12 05:04:15;;;;;;;7.25;6.57;;;5.50;99.90;;;;;;4992807;28;20050;-78
2022/11/12 05:06:53;;;;;;;6.45;5.70;;;5.70;99.90;;;;;;4993550;28;20050;-78
2022/11/12 05:09:27;;;;;;;14.82;7.43;;;5.50;99.90;;;;;;4992859;28;20517;-78
2022/11/12 05:11:54;;;;;;;8.40;6.90;;;5.60;99.90;;;;;;4993520;28;20057;-79
2022/11/12 05:14:20;;;;;;;10.15;7.57;;;5.50;99.90;;;;;;4992972;28;20472;-79
2022/11/12 05:16:46;;;;;;;9.95;7.75;;;5.40;99.90;;;;;;4992898;28;20054;-78
2022/11/12 05:19:12;;;;;;;8.25;6.78;;;5.90;99.90;;;;;;4992269;28;20062;-79
2022/11/12 05:24:22;;;;;;;9.52;8.52;;;5.40;99.90;;;;;;4992678;28;20054;-79
2022/11/12 05:26:48;;;;;;;12.77;9.43;;;5.90;99.90;;;;;;4993326;28;20398;-78
2022/11/12 05:29:13;;;;;;;10.00;8.07;;;5.20;99.90;;;;;;4992240;28;20085;-79
2022/11/12 05:31:39;;;;;;;10.25;8.27;;;5.70;99.90;;;;;;4993571;28;20504;-78
2022/11/12 05:34:05;;;;;;;8.93;7.53;;;5.20;99.90;;;;;;4991953;28;20046;-78
2022/11/12 05:36:31;;;;;;;11.10;7.90;;;5.30;99.90;;;;;;4993058;28;20054;-79
2022/11/12 05:38:57;;;;;;;10.48;8.70;;;5.30;99.90;;;;;;4991860;28;20486;-79
2022/11/12 05:41:22;;;;;;;9.45;8.32;;;5.20;99.90;;;;;;4993034;28;20050;-79
2022/11/12 05:43:48;;;;;;;10.05;8.85;;;5.70;99.90;;;;;;4993284;28;20042;-79
2022/11/12 05:46:14;;;;;;;10.27;8.88;;;5.20;99.90;;;;;;4991821;28;20097;-78
2022/11/12 05:48:39;;;;;;;14.02;9.95;;;5.50;99.90;;;;;;4992939;28;20489;-79
2022/11/12 05:51:05;;;;;;;12.15;9.93;;;5.30;99.90;;;;;;4993250;28;20050;-79
2022/11/12 05:53:31;;;;;;;11.85;9.60;;;5.30;99.90;;;;;;4992848;28;20038;-79
2022/11/12 05:56:01;;;;;;;12.05;10.82;;;5.30;99.90;;;;;;4992241;28;20062;-80
2022/11/12 05:58:27;;;;;;;14.30;11.13;;;5.40;99.90;;;;;;4992911;28;20545;-79
2022/11/12 06:00:53;;;;;;;12.30;10.57;;;5.30;99.90;;;;;;4975931;28;20070;-78
2022/11/12 06:03:18;;;;;;;10.35;9.30;;;5.30;99.90;;;;;;4992716;28;20046;-80
2022/11/12 06:05:44;;;;;;;10.45;8.20;;;5.40;99.90;;;;;;4992410;28;20053;-80
2022/11/12 06:08:09;;;;;;;8.48;7.65;;;5.30;99.90;;;;;;4992771;28;20062;-79
2022/11/12 06:10:35;;;;;;;7.47;6.82;;;5.30;99.90;;;;;;4992700;28;20089;-79
2022/11/12 06:13:01;;;;;;;7.15;6.40;;;5.60;99.90;;;;;;4991384;28;20050;-79
2022/11/12 06:15:26;;;;;;;7.43;6.72;;;5.80;99.90;;;;;;4991594;28;20061;-79
2022/11/12 06:17:53;;;;;;;9.90;8.90;;;5.30;99.90;;;;;;4991490;28;20046;-80
2022/11/12 06:20:19;;;;;;;9.38;8.48;;;5.10;99.90;;;;;;4991834;28;20043;-79
2022/11/12 06:22:45;;;;;;;9.27;8.32;;;5.10;99.90;;;;;;4992298;28;20511;-78
2022/11/12 06:25:11;;;;;;;9.85;6.78;;;5.00;99.90;;;;;;4992663;28;20082;-77
2022/11/12 06:27:36;;;;;;;15.45;8.45;;;5.50;99.90;;;;;;4975387;28;20053;-79
2022/11/12 06:30:04;;;;;;;8.80;7.13;;;4.90;99.90;;;;;;4992743;28;20050;-80
2022/11/12 06:32:29;;;;;;;83.43;13.13;;;4.90;99.90;;;;;;4992946;28;20063;-79
2022/11/12 06:34:55;;;;;;;34.22;7.85;;;4.80;99.90;;;;;;4991660;28;20156;-78
2022/11/12 06:37:21;;;;;;;33.00;8.80;;;5.30;99.90;;;;;;4992649;28;20050;-79
2022/11/12 06:39:47;;;;;;;5.65;5.20;;;5.10;99.90;;;;;;4992305;28;20038;-78
2022/11/12 06:42:13;;;;;;;6.63;6.03;;;4.70;99.90;;;;;;4991227;28;20056;-79
2022/11/12 06:44:39;;;;;;;6.88;6.18;;;5.20;99.90;;;;;;4992638;28;20082;-79
2022/11/12 06:47:05;;;;;;;8.43;6.90;;;4.80;99.90;;;;;;4994419;28;20412;-78
2022/11/12 06:49:31;;;;;;;13.90;7.60;;;5.20;99.90;;;;;;4995966;28;20105;-78
2022/11/12 06:51:57;;;;;;;82.18;12.32;;;4.70;99.90;;;;;;4994838;28;20521;-79
2022/11/12 06:54:23;;;;;;;102.68;12.35;;;4.50;99.90;;;;;;4994459;28;20042;-77
2022/11/12 06:56:48;;;;;;;42.67;9.35;;;4.80;99.90;;;;;;4994747;28;20227;-78
2022/11/12 06:59:14;;;;;;;23.08;7.80;;;4.30;99.90;;;;;;4994688;28;20050;-79
2022/11/12 07:01:40;;;;;;;38.72;8.18;;;4.40;99.90;;;;;;4978883;28;20117;-77
2022/11/12 07:04:05;;;;;;;24.17;7.65;;;5.20;99.90;;;;;;4995863;28;20193;-78
2022/11/12 07:06:33;;;;;;;7.72;6.50;;;4.70;99.90;;;;;;4994842;28;20050;-78
2022/11/12 07:08:59;;;;;;;8.23;6.60;;;4.80;99.90;;;;;;4995389;28;20054;-78
2022/11/12 07:11:24;;;;;;;8.77;6.05;;;4.90;99.90;;;;;;4995449;28;20073;-79
2022/11/12 07:13:50;;;;;;;8.15;7.20;;;5.00;99.90;;;;;;4995045;28;20062;-79
2022/11/12 07:16:17;;;;;;;7.57;6.85;;;5.10;99.90;;;;;;4995725;28;20050;-78
2022/11/12 07:18:45;;;;;;;7.18;6.47;;;5.20;99.90;;;;;;4994097;28;20061;-78
2022/11/12 07:21:13;;;;;;;7.45;6.75;;;5.40;99.90;;;;;;4994149;28;20050;-78
2022/11/12 07:23:39;;;;;;;9.70;6.38;;;5.30;99.90;;;;;;4978388;28;20090;-79
2022/11/12 07:26:16;;;;;;;9.50;7.38;;;5.40;99.90;;;;;;4994590;28;20506;-79
2022/11/12 07:28:43;;;;;;;10.20;8.07;;;5.50;99.90;;;;;;4995029;28;20054;-79
2022/11/12 07:31:10;;;;;;;10.40;7.22;;;5.60;99.90;;;;;;4993920;28;20177;-78
2022/11/12 07:33:36;;;;;;;16.45;8.45;;;5.60;99.90;;;;;;4995342;28;20042;-79
2022/11/12 07:36:03;;;;;;;20.67;8.98;;;5.70;99.90;;;;;;4993476;28;20073;-78
2022/11/12 07:38:31;;;;;;;13.18;9.18;;;5.80;99.90;;;;;;4993494;28;20062;-78
2022/11/12 07:41:07;;;;;;;10.82;7.35;;;5.90;99.90;;;;;;4993641;28;20050;-79
2022/11/12 07:43:34;;;;;;;22.92;9.55;;;6.00;99.90;;;;;;4993377;28;20039;-79
2022/11/12 07:46:10;;;;;;;24.60;9.40;;;6.10;99.90;;;;;;4995301;28;20042;-79
2022/11/12 07:48:37;;;;;;;38.05;13.02;;;6.50;99.90;;;;;;4995133;28;20056;-79
2022/11/12 07:51:05;;;;;;;82.65;17.13;;;6.10;99.90;;;;;;4994744;28;20042;-79
2022/11/12 07:53:31;;;;;;;26.77;10.77;;;6.10;99.90;;;;;;4994011;28;20066;-79
2022/11/12 07:56:03;;;;;;;28.45;10.48;;;6.10;99.90;;;;;;4994160;28;20121;-79
2022/11/12 07:58:31;;;;;;;68.80;15.13;;;6.20;99.90;;;;;;4994886;28;20126;-79
2022/11/12 08:00:57;;;;;;;63.47;13.10;;;6.20;99.90;;;;;;4994745;28;20050;-80
2022/11/12 08:03:23;;;;;;;55.05;12.07;;;6.30;99.90;;;;;;4994887;28;20100;-79
2022/11/12 08:05:49;;;;;;;54.35;11.45;;;6.30;99.90;;;;;;4994500;28;20492;-80
2022/11/12 08:08:15;;;;;;;30.40;10.23;;;6.30;99.90;;;;;;4993894;28;20050;-81
2022/11/12 08:10:41;;;;;;;27.85;10.57;;;6.40;99.90;;;;;;4994751;28;20103;-79
2022/11/12 08:13:07;;;;;;;22.63;11.23;;;6.40;99.90;;;;;;4977460;28;20046;-79
2022/11/12 08:15:32;;;;;;;70.68;15.45;;;6.60;99.90;;;;;;4992570;28;20473;-80
2022/11/12 08:17:58;;;;;;;105.55;17.42;;;6.70;99.90;;;;;;4993763;28;20047;-78
2022/11/12 08:20:24;;;;;;;76.43;16.63;;;6.60;99.90;;;;;;4994809;28;20529;-79
2022/11/12 08:22:49;;;;;;;81.10;15.07;;;6.70;99.90;;;;;;4994636;28;20470;-79
2022/11/12 08:25:15;;;;;;;36.72;13.10;;;6.60;99.90;;;;;;4994255;28;20470;-79
2022/11/12 08:27:41;;;;;;;67.78;15.18;;;6.60;99.90;;;;;;4993939;28;20108;-79
2022/11/12 08:30:07;;;;;;;91.43;14.65;;;6.70;99.90;;;;;;4993310;28;20046;-78
2022/11/12 08:32:33;;;;;;;61.78;13.27;;;6.70;99.90;;;;;;4993334;28;20053;-79
2022/11/12 08:34:59;;;;;;;26.05;8.38;;;6.70;99.90;;;;;;4992989;28;20050;-79
2022/11/12 08:37:24;;;;;;;77.90;13.13;;;6.70;99.90;;;;;;4993032;28;20363;-79
2022/11/12 08:39:50;;;;;;;118.32;17.33;;;6.70;99.90;;;;;;4993338;28;20046;-79
2022/11/12 08:42:16;;;;;;;42.42;10.80;;;6.80;99.90;;;;;;4992896;28;20131;-80
2022/11/12 08:44:42;;;;;;;73.10;16.67;;;7.00;99.90;;;;;;4993866;28;20505;-79
2022/11/12 08:47:07;;;;;;;80.40;13.93;;;7.00;99.90;;;;;;4993525;28;20047;-79
2022/11/12 08:49:33;;;;;;;69.43;14.88;;;7.00;99.90;;;;;;4992441;28;20077;-79
2022/11/12 08:51:59;;;;;;;78.45;15.85;;;7.00;99.90;;;;;;4976831;28;20112;-79
2022/11/12 08:54:24;;;;;;;135.90;21.05;;;7.50;99.90;;;;;;4992740;28;20051;-79
2022/11/12 08:56:50;;;;;;;103.55;20.33;;;7.20;99.90;;;;;;4992453;28;20046;-78
2022/11/12 08:59:16;;;;;;;93.63;16.45;;;7.30;99.90;;;;;;4992765;28;20046;-78
2022/11/12 09:01:42;;;;;;;127.85;21.65;;;7.40;99.90;;;;;;4993190;28;20469;-78
2022/11/12 09:04:07;;;;;;;132.60;19.63;;;7.60;99.90;;;;;;4993185;28;20057;-78
2022/11/12 09:06:33;;;;;;;94.97;17.58;;;7.40;99.90;;;;;;4992345;28;20382;-78
2022/11/12 09:08:59;;;;;;;75.25;16.40;;;7.50;99.90;;;;;;4992717;28;20054;-79
2022/11/12 09:11:25;;;;;;;93.15;18.95;;;7.90;99.90;;;;;;4992216;28;20046;-79
2022/11/12 09:13:53;;;;;;;100.00;17.92;;;7.60;99.90;;;;;;4993181;28;20058;-79
2022/11/12 09:16:20;;;;;;;104.80;20.58;;;7.70;99.90;;;;;;4993401;28;20043;-78
2022/11/12 09:18:46;;;;;;;110.88;18.77;;;7.70;99.90;;;;;;4992242;28;20061;-79
2022/11/12 09:21:12;;;;;;;59.28;18.20;;;7.90;99.90;;;;;;4993658;28;20050;-79
2022/11/12 09:23:38;;;;;;;99.00;25.38;;;7.90;99.90;;;;;;5008481;28;20046;-79
2022/11/12 09:26:04;;;;;;;85.88;20.83;;;8.00;99.90;;;;;;4993752;28;20439;-78
2022/11/12 09:28:31;;;;;;;99.95;19.88;;;8.10;99.90;;;;;;4992329;28;20137;-78
2022/11/12 09:30:56;;;;;;;103.20;23.65;;;8.20;99.90;;;;;;4993181;28;20049;-79
2022/11/12 09:33:26;;;;;;;155.02;25.38;;;8.30;99.90;;;;;;4992394;28;20423;-78
2022/11/12 09:35:52;;;;;;;133.18;25.02;;;8.30;99.90;;;;;;4993030;28;20109;-79
2022/11/12 09:38:21;;;;;;;77.15;17.80;;;8.30;99.90;;;;;;4976034;28;20050;-78
2022/11/12 09:41:00;;;;;;;94.85;21.42;;;8.40;99.90;;;;;;4991880;28;20073;-78
2022/11/12 09:43:58;;;;;;;119.03;21.80;;;8.50;99.90;;;;;;4993254;28;20046;-78
2022/11/12 09:46:54;;;;;;;138.82;25.00;;;8.50;99.90;;;;;;4992326;28;20512;-78
2022/11/12 09:49:46;;;;;;;107.88;29.35;;;8.60;99.90;;;;;;4992839;28;20061;-78
2022/11/12 09:52:20;;;;;;;107.25;24.73;;;8.60;99.90;;;;;;4986303;28;20066;-78
2022/11/12 09:54:49;;;;;;;;;;;8.90;99.90;;;;;;4992573;28;20070;-78
2022/11/12 09:57:15;;;;;;;105.53;23.48;;;8.70;99.90;;;;;;4991876;28;19922;-78
2022/11/12 09:59:41;;;;;;;102.13;23.70;;;8.70;99.90;;;;;;4992699;28;20521;-78
2022/11/12 10:02:28;;;;;;;74.45;21.02;;;8.80;99.90;;;;;;4991702;28;20053;-78
2022/11/12 10:05:25;;;;;;;97.57;21.67;;;8.90;99.90;;;;;;4992459;28;20051;-79
2022/11/12 10:08:24;;;;;;;98.60;20.25;;;8.90;99.90;;;;;;4992561;28;20553;-80
2022/11/12 10:11:15;;;;;;;106.63;22.13;;;8.90;99.90;;;;;;4992521;28;20050;-78
2022/11/12 10:14:11;;;;;;;88.40;20.13;;;8.90;99.90;;;;;;4991782;28;20065;-78
2022/11/12 10:16:43;;;;;;;68.18;19.27;;;8.90;99.90;;;;;;4992877;28;20121;-78
2022/11/12 10:19:09;;;;;;;76.15;21.80;;;9.00;99.90;;;;;;4992584;28;20050;-78
2022/11/12 10:21:57;;;;;;;97.65;19.92;;;9.00;99.90;;;;;;4993696;28;20096;-79
2022/11/12 10:24:32;;;;;;;88.97;21.33;;;8.90;99.90;;;;;;4995800;28;20446;-79
2022/11/12 10:26:58;;;;;;;83.72;20.92;;;8.90;99.90;;;;;;4996670;28;20043;-79
2022/11/12 10:29:40;;;;;;;78.35;20.45;;;8.90;99.90;;;;;;4996123;28;20049;-79
2022/11/12 10:32:12;;;;;;;59.25;18.85;;;8.90;99.90;;;;;;4996880;28;20079;-79
2022/11/12 10:34:39;;;;;;;64.60;21.08;;;8.90;99.90;;;;;;4996889;28;20074;-79
2022/11/12 10:37:06;;;;;;;72.22;21.08;;;9.00;99.90;;;;;;4994808;28;20056;-79
2022/11/12 10:39:35;;;;;;;41.30;19.38;;;9.10;99.90;;;;;;4995642;28;20093;-78
2022/11/12 10:42:05;;;;;;;60.45;21.17;;;9.10;99.90;;;;;;4995979;28;20136;-79
2022/11/12 10:44:31;;;;;;;56.28;23.23;;;9.10;99.90;;;;;;4995976;28;20100;-77
2022/11/12 10:47:17;;;;;;;39.47;21.42;;;9.20;99.90;;;;;;4996255;28;20046;-79
2022/11/12 10:49:43;;;;;;;47.78;22.58;;;9.20;99.90;;;;;;4995995;28;20046;-79
2022/11/12 10:52:22;;;;;;;30.30;16.80;;;9.30;99.90;;;;;;4996352;28;20457;-78
2022/11/12 10:54:48;;;;;;;55.75;21.02;;;9.30;99.90;;;;;;4995219;28;20125;-79
2022/11/12 10:57:24;;;;;;;29.33;17.52;;;9.30;99.90;;;;;;4995737;28;20568;-79
2022/11/12 11:00:08;;;;;;;29.67;18.80;;;9.30;99.90;;;;;;5011107;28;20085;-79
2022/11/12 11:02:34;;;;;;;22.88;18.23;;;9.40;99.90;;;;;;4994117;28;20051;-79
2022/11/12 11:04:59;;;;;;;25.73;18.75;;;9.40;99.90;;;;;;4978877;28;20061;-78
2022/11/12 11:07:25;;;;;;;26.83;17.85;;;9.60;99.90;;;;;;4994277;28;20042;-79
2022/11/12 11:09:59;;;;;;;23.40;17.17;;;9.60;99.90;;;;;;4995491;28;20093;-78
2022/11/12 11:12:31;;;;;;;22.63;14.43;;;9.80;99.90;;;;;;4996117;28;20073;-78
2022/11/12 11:15:27;;;;;;;21.00;14.60;;;9.90;99.90;;;;;;4978479;28;20133;-78
2022/11/12 11:17:53;;;;;;;18.65;12.13;;;9.90;99.90;;;;;;4994132;28;20149;-79
2022/11/12 11:20:34;;;;;;;15.40;12.27;;;10.00;99.90;;;;;;4995554;28;20116;-78
2022/11/12 11:23:24;;;;;;;23.15;15.50;;;10.10;99.90;;;;;;4995441;28;20099;-78
2022/11/12 11:25:53;;;;;;;22.20;13.57;;;10.10;99.90;;;;;;4995046;28;20125;-79
2022/11/12 11:28:45;;;;;;;15.82;12.20;;;10.20;99.90;;;;;;4995490;28;20117;-78
2022/11/12 11:31:26;;;;;;;12.18;10.07;;;10.30;99.90;;;;;;4995720;28;20093;-78
2022/11/12 11:34:06;;;;;;;19.58;12.02;;;10.30;99.90;;;;;;4994685;28;20046;-79
2022/11/12 11:36:47;;;;;;;14.18;10.77;;;10.30;99.90;;;;;;4995413;28;20078;-79
2022/11/12 11:39:29;;;;;;;13.65;11.02;;;10.40;99.90;;;;;;4994332;28;20054;-79
2022/11/12 11:42:34;;;;;;;15.88;11.95;;;10.50;99.90;;;;;;4995294;28;20096;-79
2022/11/12 11:45:43;;;;;;;12.82;10.13;;;10.60;99.90;;;;;;4994257;28;20054;-79
2022/11/12 11:48:36;;;;;;;13.93;10.88;;;10.60;99.90;;;;;;4994641;28;20054;-79
2022/11/12 11:51:47;;;;;;;10.80;9.50;;;10.50;99.90;;;;;;4994513;28;20061;-79
2022/11/12 11:54:26;;;;;;;13.32;10.10;;;10.60;99.90;;;;;;4950931;28;20058;-79
2022/11/12 11:56:56;;;;;;;12.70;9.05;;;10.30;99.90;;;;;;4995455;28;20121;-79
2022/11/12 11:59:58;;;;;;;13.43;10.82;;;10.70;99.90;;;;;;4994990;28;20073;-79
2022/11/12 12:02:54;;;;;;;10.90;9.27;;;10.80;99.90;;;;;;4994601;28;20093;-79
2022/11/12 12:05:55;;;;;;;10.90;9.63;;;11.00;99.90;;;;;;4994583;28;20050;-79
2022/11/12 12:08:44;;;;;;;14.60;9.25;;;11.00;99.90;;;;;;4993850;28;20050;-80
2022/11/12 12:11:18;;;;;;;11.40;10.02;;;11.00;99.90;;;;;;4993281;28;20133;-80
2022/11/12 12:14:01;;;;;;;11.30;8.85;;;11.00;99.90;;;;;;4977508;28;20053;-79
2022/11/12 12:16:39;;;;;;;12.18;9.57;;;11.10;99.90;;;;;;4994932;28;20107;-79
2022/11/12 12:19:19;;;;;;;11.90;9.02;;;11.20;99.90;;;;;;4993559;28;20046;-79
2022/11/12 12:21:49;;;;;;;11.90;10.50;;;11.30;99.90;;;;;;4994732;28;20065;-72
2022/11/12 12:24:29;;;;;;;14.02;8.63;;;11.50;99.90;;;;;;4994177;28;20085;-71
2022/11/12 12:27:24;;;;;;;12.82;10.18;;;11.50;99.90;;;;;;4993437;28;20047;-71
2022/11/12 12:30:13;;;;;;;10.43;9.20;;;11.50;99.90;;;;;;4994905;28;20081;-77
2022/11/12 12:32:46;;;;;;;12.73;8.68;;;11.60;99.90;;;;;;4993726;28;20047;-80
2022/11/12 12:35:31;;;;;;;11.20;9.43;;;11.60;99.90;;;;;;4994229;28;20052;-85
2022/11/12 12:38:19;;;;;;;12.90;8.23;;;11.60;99.90;;;;;;4993032;28;20061;-79
2022/11/12 12:41:12;;;;;;;13.50;9.20;;;11.60;99.90;;;;;;4994469;28;20057;-79
2022/11/12 12:43:52;;;;;;;11.82;10.30;;;11.70;99.90;;;;;;4993443;28;20057;-79
2022/11/12 12:46:22;;;;;;;10.77;9.50;;;11.60;99.90;;;;;;4992612;28;20054;-79
2022/11/12 12:48:51;;;;;;;14.73;10.82;;;11.60;99.90;;;;;;4994247;28;20085;-78
2022/11/12 12:51:18;;;;;;;10.50;8.52;;;11.40;99.90;;;;;;4993821;28;20116;-79
2022/11/12 12:53:43;;;;;;;9.13;8.20;;;11.40;99.90;;;;;;4993718;28;20093;-79
2022/11/12 12:56:12;;;;;;;11.52;10.32;;;11.50;99.90;;;;;;4993764;28;20050;-80
2022/11/12 12:58:46;;;;;;;14.95;9.50;;;11.50;99.90;;;;;;4996450;28;20370;-80
2022/11/12 13:01:23;;;;;;;14.30;9.38;;;11.50;99.90;;;;;;4997388;28;20042;-80
2022/11/12 13:03:49;;;;;;;16.02;10.27;;;11.40;99.90;;;;;;4992543;28;20121;-80
2022/11/12 13:06:22;;;;;;;13.60;9.20;;;11.40;99.90;;;;;;4993404;28;20494;-80
2022/11/12 13:08:54;;;;;;;;;;;11.40;99.90;;;;;;4992920;28;20046;-80
2022/11/12 13:12:20;;;;;;;10.55;9.20;;;11.40;99.90;;;;;;4992243;28;19929;-80
2022/11/12 13:14:33;;;;;;;10.93;9.07;;;11.40;99.90;;;;;;4991452;28;20054;-80
2022/11/12 13:17:11;;;;;;;13.38;10.43;;;11.50;99.90;;;;;;4993211;28;20058;-80
2022/11/12 13:19:52;;;;;;;10.13;8.88;;;11.40;99.90;;;;;;4991964;28;20463;-80
2022/11/12 13:22:17;;;;;;;13.05;9.68;;;11.30;99.90;;;;;;4992123;28;20407;-80
2022/11/12 13:25:19;;;;;;;13.15;10.43;;;11.30;99.90;;;;;;4993074;28;20046;-83